Time;durP1;ratioP1;P1;durP2;ratioP2;P2;SDS_P1;SDS_P2;PMS_P1;PMS_P2;Temp;Humidity;BMP_temperature;BMP_pressure;BME280_temperature;BME280_humidity;BME280_pressure;Samples;Min_cycle;Max_cycle;Signal;HPM_P1;HPM_P2
2022/12/13 00:01:22;;;;;;;37.17;19.63;;;;;;;;;;5075585;28;20044;-82
2022/12/13 00:04:09;;;;;;;42.30;20.05;;;;;;;;;;5074808;28;20429;-78
2022/12/13 00:06:54;;;;;;;42.10;19.58;;;;;;;;;;5077758;28;20045;-83
2022/12/13 00:09:41;;;;;;;39.80;20.52;;;;;;;;;;5072869;28;20048;-83
2022/12/13 00:12:27;;;;;;;38.08;20.23;;;;;;;;;;5068255;28;20498;-87
2022/12/13 00:15:13;;;;;;;34.47;19.63;;;;;;;;;;5081562;28;20053;-83
2022/12/13 00:17:58;;;;;;;41.05;20.90;;;;;;;;;;5081981;28;20052;-79
2022/12/13 00:20:44;;;;;;;44.63;22.70;;;;;;;;;;5073891;28;20040;-79
2022/12/13 00:23:30;;;;;;;40.75;21.92;;;;;;;;;;5081716;28;20053;-81
2022/12/13 00:26:22;;;;;;;42.50;22.33;;;;;;;;;;5073809;28;20045;-80
2022/12/13 00:29:08;;;;;;;48.60;23.02;;;;;;;;;;5077778;28;20048;-81
2022/12/13 00:31:54;;;;;;;50.15;25.80;;;;;;;;;;5076671;28;20421;-83
2022/12/13 00:34:39;;;;;;;45.50;24.85;;;;;;;;;;5077170;28;20041;-81
2022/12/13 00:37:25;;;;;;;49.58;25.42;;;;;;;;;;5068592;28;20044;-83
2022/12/13 00:40:11;;;;;;;46.80;25.27;;;;;;;;;;5078012;28;20044;-81
2022/12/13 00:42:56;;;;;;;53.72;25.42;;;;;;;;;;5069969;28;20040;-83
2022/12/13 00:45:42;;;;;;;49.00;24.27;;;;;;;;;;5061617;28;20048;-83
2022/12/13 00:48:28;;;;;;;45.63;22.77;;;;;;;;;;5061091;28;20045;-82
2022/12/13 00:51:14;;;;;;;50.38;25.02;;;;;;;;;;5076491;28;20486;-81
2022/12/13 00:54:00;;;;;;;44.05;23.85;;;;;;;;;;5077114;28;20494;-82
2022/12/13 00:56:46;;;;;;;47.70;23.92;;;;;;;;;;5069727;28;20052;-82
2022/12/13 00:59:31;;;;;;;56.40;28.48;;;;;;;;;;5077072;28;20045;-84
2022/12/13 01:02:17;;;;;;;57.17;27.55;;;;;;;;;;5075919;28;20049;-84
2022/12/13 01:05:03;;;;;;;46.97;23.75;;;;;;;;;;5061158;28;20473;-84
2022/12/13 01:07:48;;;;;;;46.83;22.95;;;;;;;;;;5075324;28;20048;-84
2022/12/13 01:10:33;;;;;;;47.13;24.10;;;;;;;;;;5060855;28;20040;-84
2022/12/13 01:13:18;;;;;;;57.65;26.15;;;;;;;;;;5075288;28;20044;-81
2022/12/13 01:16:06;;;;;;;48.17;24.67;;;;;;;;;;5075914;28;20044;-83
2022/12/13 01:18:52;;;;;;;46.58;23.27;;;;;;;;;;5082956;28;20044;-81
2022/12/13 01:21:37;;;;;;;45.40;22.75;;;;;;;;;;5075418;28;20048;-81
2022/12/13 01:24:24;;;;;;;41.90;21.05;;;;;;;;;;5075609;28;20481;-84
2022/12/13 01:27:10;;;;;;;37.55;20.25;;;;;;;;;;5075957;28;20393;-81
2022/12/13 01:29:56;;;;;;;40.80;20.73;;;;;;;;;;5067319;28;20049;-83
2022/12/13 01:32:41;;;;;;;34.20;19.20;;;;;;;;;;5075164;28;20397;-82
2022/12/13 01:35:27;;;;;;;37.67;20.15;;;;;;;;;;5059736;28;20409;-81
2022/12/13 01:38:13;;;;;;;39.90;19.55;;;;;;;;;;5075286;28;20478;-83
2022/12/13 01:40:58;;;;;;;35.00;20.00;;;;;;;;;;5061242;28;20061;-84
2022/12/13 01:43:53;;;;;;;44.67;21.52;;;;;;;;;;5074664;28;20053;-84
2022/12/13 01:46:38;;;;;;;38.47;21.87;;;;;;;;;;5066055;28;20052;-84
2022/12/13 01:49:24;;;;;;;40.05;20.52;;;;;;;;;;5074366;28;20048;-84
2022/12/13 01:52:12;;;;;;;40.25;21.05;;;;;;;;;;5080255;28;20020;-84
2022/12/13 01:55:02;;;;;;;40.17;20.13;;;;;;;;;;5077839;28;20053;-81
2022/12/13 01:57:52;;;;;;;42.63;21.50;;;;;;;;;;5055026;28;20053;-82
2022/12/13 02:00:37;;;;;;;45.03;22.73;;;;;;;;;;5055000;28;20036;-84
2022/12/13 02:03:22;;;;;;;40.25;20.73;;;;;;;;;;5053070;28;20398;-83
2022/12/13 02:06:18;;;;;;;59.97;26.17;;;;;;;;;;5054363;28;20390;-84
2022/12/13 02:09:06;;;;;;;47.15;24.33;;;;;;;;;;5054482;28;20045;-81
2022/12/13 02:11:52;;;;;;;48.38;25.63;;;;;;;;;;5054108;28;20053;-84
2022/12/13 02:14:39;;;;;;;43.75;22.77;;;;;;;;;;5054189;28;20052;-81
2022/12/13 02:17:52;;;;;;;44.25;22.60;;;;;;;;;;5054200;28;20048;-81
2022/12/13 02:21:01;;;;;;;46.85;23.00;;;;;;;;;;5054498;28;20044;-81
2022/12/13 02:24:24;;;;;;;67.97;32.20;;;;;;;;;;5055045;28;20037;-81
2022/12/13 02:27:41;;;;;;;86.70;36.63;;;;;;;;;;5054409;28;20048;-81
2022/12/13 02:30:38;;;;;;;55.47;24.27;;;;;;;;;;5046141;28;20041;-81
2022/12/13 02:33:39;;;;;;;40.55;21.38;;;;;;;;;;5053743;28;20041;-81
2022/12/13 02:36:46;;;;;;;46.35;22.98;;;;;;;;;;5060096;28;20053;-81
2022/12/13 02:39:38;;;;;;;55.17;24.92;;;;;;;;;;5053467;28;20049;-81
2022/12/13 02:42:35;;;;;;;54.63;26.27;;;;;;;;;;5053788;28;20049;-84
2022/12/13 02:45:38;;;;;;;51.78;26.13;;;;;;;;;;5053813;28;20045;-81
2022/12/13 02:48:30;;;;;;;46.55;22.35;;;;;;;;;;5052508;28;20052;-84
2022/12/13 02:51:17;;;;;;;41.50;19.40;;;;;;;;;;5074178;28;20040;-80
2022/12/13 02:54:03;;;;;;;33.70;18.92;;;;;;;;;;5072976;28;20040;-81
2022/12/13 02:56:56;;;;;;;36.42;17.77;;;;;;;;;;5074151;28;20052;-81
2022/12/13 02:59:41;;;;;;;36.55;19.05;;;;;;;;;;5072478;28;20473;-83
2022/12/13 03:02:58;;;;;;;34.92;17.92;;;;;;;;;;5073676;28;20466;-81
2022/12/13 03:09:09;;;;;;;32.72;17.75;;;;;;;;;;5064708;28;20056;-83
2022/12/13 03:15:11;;;;;;;57.33;26.75;;;;;;;;;;5064534;28;20490;-81
2022/12/13 03:18:14;;;;;;;45.00;22.60;;;;;;;;;;5073856;28;20401;-80
2022/12/13 03:21:03;;;;;;;38.90;20.27;;;;;;;;;;5065069;28;20052;-81
2022/12/13 03:23:49;;;;;;;44.72;21.10;;;;;;;;;;5073356;28;20506;-81
2022/12/13 03:26:37;;;;;;;59.17;26.65;;;;;;;;;;5073468;28;20048;-81
2022/12/13 03:29:22;;;;;;;74.15;30.60;;;;;;;;;;5072888;28;20044;-81
2022/12/13 03:32:07;;;;;;;155.38;56.15;;;;;;;;;;5073387;28;20044;-83
2022/12/13 03:34:53;;;;;;;145.93;53.13;;;;;;;;;;5073238;28;20045;-83
2022/12/13 03:37:38;;;;;;;199.50;74.57;;;;;;;;;;5073115;28;20056;-81
2022/12/13 03:40:24;;;;;;;148.23;52.80;;;;;;;;;;5080366;28;20049;-83
2022/12/13 03:43:10;;;;;;;87.65;37.72;;;;;;;;;;5064504;28;20048;-83
2022/12/13 03:45:56;;;;;;;52.78;24.80;;;;;;;;;;5073672;28;20040;-81
2022/12/13 03:48:41;;;;;;;50.38;25.02;;;;;;;;;;5080141;28;20052;-80
2022/12/13 03:51:26;;;;;;;55.58;25.52;;;;;;;;;;5072537;28;20049;-80
2022/12/13 03:54:12;;;;;;;53.08;24.98;;;;;;;;;;5061033;28;20044;-83
2022/12/13 03:56:58;;;;;;;41.65;22.60;;;;;;;;;;5057953;28;20048;-81
2022/12/13 03:59:44;;;;;;;43.83;21.25;;;;;;;;;;5057991;28;20044;-82
2022/12/13 04:02:29;;;;;;;43.50;20.40;;;;;;;;;;5065101;28;20044;-80
2022/12/13 04:05:14;;;;;;;42.22;20.10;;;;;;;;;;5072498;28;20041;-81
2022/12/13 04:08:00;;;;;;;40.60;20.48;;;;;;;;;;5073292;28;20382;-82
2022/12/13 04:10:46;;;;;;;43.30;21.60;;;;;;;;;;5075145;28;20044;-82
2022/12/13 04:13:31;;;;;;;44.67;23.23;;;;;;;;;;5085132;28;20028;-83
2022/12/13 04:16:17;;;;;;;43.25;22.13;;;;;;;;;;5080175;28;20382;-82
2022/12/13 04:19:02;;;;;;;48.40;23.27;;;;;;;;;;5083150;28;20044;-83
2022/12/13 04:21:48;;;;;;;49.38;23.00;;;;;;;;;;5068614;28;20048;-83
2022/12/13 04:24:34;;;;;;;37.83;21.88;;;;;;;;;;5054131;28;20417;-83
2022/12/13 04:27:19;;;;;;;44.40;22.88;;;;;;;;;;5070004;28;20052;-87
2022/12/13 04:30:05;;;;;;;43.15;22.73;;;;;;;;;;5076670;28;20044;-83
2022/12/13 04:32:50;;;;;;;51.15;25.35;;;;;;;;;;5075942;28;20052;-83
2022/12/13 04:35:36;;;;;;;46.67;23.08;;;;;;;;;;5076623;28;20044;-83
2022/12/13 04:38:21;;;;;;;41.53;23.88;;;;;;;;;;5076563;28;20037;-80
2022/12/13 04:41:14;;;;;;;72.45;33.58;;;;;;;;;;5076391;28;20044;-81
2022/12/13 04:44:00;;;;;;;62.50;31.38;;;;;;;;;;5076345;28;20040;-80
2022/12/13 04:46:45;;;;;;;59.63;29.88;;;;;;;;;;5067369;28;20044;-81
2022/12/13 04:49:32;;;;;;;63.28;32.75;;;;;;;;;;5054002;28;20481;-82
2022/12/13 04:52:18;;;;;;;52.92;27.90;;;;;;;;;;5076347;28;20044;-83
2022/12/13 04:55:04;;;;;;;60.22;29.48;;;;;;;;;;5074859;28;20056;-83
2022/12/13 04:57:50;;;;;;;51.10;25.40;;;;;;;;;;5061312;28;20525;-83
2022/12/13 05:00:35;;;;;;;46.53;22.27;;;;;;;;;;5082530;28;20048;-83
2022/12/13 05:03:21;;;;;;;50.42;25.30;;;;;;;;;;5082905;28;20045;-81
2022/12/13 05:06:12;;;;;;;39.13;19.23;;;;;;;;;;5075822;28;20048;-81
2022/12/13 05:08:57;;;;;;;38.75;19.67;;;;;;;;;;5075281;28;20033;-83
2022/12/13 05:11:42;;;;;;;39.92;18.15;;;;;;;;;;5075637;28;20028;-81
2022/12/13 05:14:32;;;;;;;44.88;22.75;;;;;;;;;;5075744;28;20421;-83
2022/12/13 05:17:17;;;;;;;46.88;22.88;;;;;;;;;;5075407;28;20055;-81
2022/12/13 05:20:03;;;;;;;42.83;21.13;;;;;;;;;;5075504;28;20037;-83
2022/12/13 05:22:48;;;;;;;33.45;17.42;;;;;;;;;;5080904;28;20397;-83
2022/12/13 05:25:35;;;;;;;28.63;14.95;;;;;;;;;;5076198;28;20482;-81
2022/12/13 05:28:24;;;;;;;28.95;15.38;;;;;;;;;;5075679;28;20049;-82
2022/12/13 05:31:11;;;;;;;30.98;15.50;;;;;;;;;;5066728;28;20040;-81
2022/12/13 05:33:56;;;;;;;37.67;16.65;;;;;;;;;;5075262;28;20385;-81
2022/12/13 05:36:41;;;;;;;31.42;16.67;;;;;;;;;;5066566;28;20048;-80
2022/12/13 05:39:27;;;;;;;27.05;15.60;;;;;;;;;;5075018;28;20044;-83
2022/12/13 05:42:13;;;;;;;33.20;16.48;;;;;;;;;;5075394;28;20045;-83
2022/12/13 05:44:58;;;;;;;25.60;14.55;;;;;;;;;;5074464;28;20048;-83
2022/12/13 05:47:44;;;;;;;29.45;15.52;;;;;;;;;;5060249;28;20049;-80
2022/12/13 05:50:30;;;;;;;31.92;16.25;;;;;;;;;;5074946;28;20044;-82
2022/12/13 05:53:16;;;;;;;36.78;16.95;;;;;;;;;;5080168;28;20052;-81
2022/12/13 05:56:02;;;;;;;35.30;17.00;;;;;;;;;;5075056;28;20040;-80
2022/12/13 05:58:48;;;;;;;32.67;16.92;;;;;;;;;;5074057;28;20501;-83
2022/12/13 06:01:33;;;;;;;34.10;17.20;;;;;;;;;;5059938;28;20040;-83
2022/12/13 06:04:18;;;;;;;38.50;18.88;;;;;;;;;;5066088;28;20041;-84
2022/12/13 06:07:04;;;;;;;39.85;20.95;;;;;;;;;;5074187;28;20044;-82
2022/12/13 06:09:50;;;;;;;45.03;23.33;;;;;;;;;;5059253;28;20048;-84
2022/12/13 06:12:36;;;;;;;66.10;30.15;;;;;;;;;;5073785;28;20478;-84
2022/12/13 06:15:22;;;;;;;59.75;27.77;;;;;;;;;;5066202;28;20048;-84
2022/12/13 06:18:08;;;;;;;55.45;27.20;;;;;;;;;;5074445;28;20040;-84
2022/12/13 06:21:01;;;;;;;44.05;22.55;;;;;;;;;;5073841;28;20044;-84
2022/12/13 06:23:46;;;;;;;39.08;21.92;;;;;;;;;;5074202;28;20040;-84
2022/12/13 06:26:32;;;;;;;59.10;25.40;;;;;;;;;;5073757;28;20382;-84
2022/12/13 06:29:20;;;;;;;166.48;62.72;;;;;;;;;;5082487;28;20048;-83
2022/12/13 06:32:06;;;;;;;184.02;60.50;;;;;;;;;;5091352;28;20044;-84
2022/12/13 06:34:51;;;;;;;155.25;51.97;;;;;;;;;;5073491;28;20481;-84
2022/12/13 06:37:36;;;;;;;142.60;48.45;;;;;;;;;;5074026;28;20040;-84
2022/12/13 06:40:22;;;;;;;79.32;33.42;;;;;;;;;;5073415;28;20611;-84
2022/12/13 06:43:08;;;;;;;62.60;28.77;;;;;;;;;;5073908;28;20401;-82
2022/12/13 06:45:53;;;;;;;85.43;36.60;;;;;;;;;;5073692;28;20048;-81
2022/12/13 06:48:42;;;;;;;68.13;30.55;;;;;;;;;;5064873;28;20044;-84
2022/12/13 06:51:28;;;;;;;63.92;30.92;;;;;;;;;;5074095;28;20040;-84
2022/12/13 06:54:13;;;;;;;59.40;30.05;;;;;;;;;;5073822;28;20048;-81
2022/12/13 06:56:59;;;;;;;83.47;35.03;;;;;;;;;;5077628;28;20053;-85
2022/12/13 06:59:44;;;;;;;61.10;27.13;;;;;;;;;;5073993;28;20040;-81
2022/12/13 07:02:31;;;;;;;44.90;22.48;;;;;;;;;;5073108;28;20485;-82
2022/12/13 07:05:17;;;;;;;42.70;22.23;;;;;;;;;;5065339;28;20056;-84
2022/12/13 07:08:02;;;;;;;371.75;121.70;;;;;;;;;;5065236;28;20048;-84
2022/12/13 07:10:48;;;;;;;353.52;111.00;;;;;;;;;;5072990;28;20044;-81
2022/12/13 07:13:34;;;;;;;134.18;45.25;;;;;;;;;;5058275;28;20045;-81
2022/12/13 07:16:20;;;;;;;76.70;35.00;;;;;;;;;;5073238;28;20049;-85
2022/12/13 07:19:08;;;;;;;66.82;30.52;;;;;;;;;;5074363;28;20089;-83
2022/12/13 07:21:54;;;;;;;111.00;45.10;;;;;;;;;;5073888;28;20044;-84
2022/12/13 07:24:40;;;;;;;90.00;38.05;;;;;;;;;;5074898;28;20041;-83
2022/12/13 07:27:25;;;;;;;97.07;39.67;;;;;;;;;;5080353;28;20386;-83
2022/12/13 07:30:11;;;;;;;76.80;33.83;;;;;;;;;;5081608;28;20048;-81
2022/12/13 07:32:57;;;;;;;70.65;31.77;;;;;;;;;;5069887;28;20477;-81
2022/12/13 07:35:42;;;;;;;69.10;30.73;;;;;;;;;;5073229;28;20049;-83
2022/12/13 07:38:27;;;;;;;51.13;26.48;;;;;;;;;;5077961;28;20040;-83
2022/12/13 07:41:13;;;;;;;70.80;31.83;;;;;;;;;;5080127;28;20044;-80
2022/12/13 07:43:58;;;;;;;69.90;30.67;;;;;;;;;;5078526;28;20389;-83
2022/12/13 07:46:44;;;;;;;74.28;33.45;;;;;;;;;;5079492;28;20045;-80
2022/12/13 07:49:30;;;;;;;80.43;36.00;;;;;;;;;;5066097;28;20485;-80
2022/12/13 07:52:15;;;;;;;71.00;33.67;;;;;;;;;;5078684;28;20040;-83
2022/12/13 07:55:03;;;;;;;67.53;30.63;;;;;;;;;;5077715;28;20040;-80
2022/12/13 07:57:48;;;;;;;63.47;31.30;;;;;;;;;;5077318;28;20066;-80
2022/12/13 08:00:35;;;;;;;76.30;34.03;;;;;;;;;;5076117;28;20041;-83
2022/12/13 08:03:21;;;;;;;75.53;34.13;;;;;;;;;;5062291;28;20386;-83
2022/12/13 08:06:11;;;;;;;72.80;34.42;;;;;;;;;;5061514;28;20033;-78
2022/12/13 08:08:56;;;;;;;68.68;33.13;;;;;;;;;;5076472;28;20044;-78
2022/12/13 08:11:41;;;;;;;70.32;32.13;;;;;;;;;;5076144;28;20049;-76
2022/12/13 08:14:27;;;;;;;65.40;30.23;;;;;;;;;;5078665;28;20044;-78
2022/12/13 08:17:13;;;;;;;54.78;27.83;;;;;;;;;;5087196;28;20049;-80
2022/12/13 08:19:58;;;;;;;59.65;28.98;;;;;;;;;;5076793;28;20037;-79
2022/12/13 08:22:44;;;;;;;66.60;30.02;;;;;;;;;;5077707;28;20045;-78
2022/12/13 08:25:30;;;;;;;73.95;33.58;;;;;;;;;;5079340;28;20048;-78
2022/12/13 08:28:15;;;;;;;74.25;31.63;;;;;;;;;;5077007;28;20032;-80
2022/12/13 08:31:03;;;;;;;44.47;23.73;;;;;;;;;;5083630;28;20485;-81
2022/12/13 08:33:48;;;;;;;48.33;26.35;;;;;;;;;;5076711;28;20040;-79
2022/12/13 08:36:34;;;;;;;53.88;26.65;;;;;;;;;;5075900;28;20053;-76
2022/12/13 08:39:19;;;;;;;52.40;26.25;;;;;;;;;;5076082;28;20045;-79
2022/12/13 08:42:13;;;;;;;61.38;30.95;;;;;;;;;;5061451;28;20397;-76
2022/12/13 08:44:58;;;;;;;72.85;35.85;;;;;;;;;;5097815;28;20057;-79
2022/12/13 08:47:44;;;;;;;79.60;38.53;;;;;;;;;;5082522;28;20044;-79
2022/12/13 08:50:30;;;;;;;81.60;35.05;;;;;;;;;;5075663;28;20052;-79
2022/12/13 08:53:15;;;;;;;75.00;35.67;;;;;;;;;;5075804;28;20398;-78
2022/12/13 08:56:02;;;;;;;69.82;34.55;;;;;;;;;;5074876;28;20044;-78
2022/12/13 08:58:50;;;;;;;64.30;30.95;;;;;;;;;;5075428;28;20041;-79
2022/12/13 09:01:37;;;;;;;51.67;28.05;;;;;;;;;;5076021;28;20045;-79
2022/12/13 09:04:22;;;;;;;69.10;32.75;;;;;;;;;;5082054;28;20036;-80
2022/12/13 09:07:07;;;;;;;56.33;27.77;;;;;;;;;;5075390;28;20040;-79
2022/12/13 09:09:53;;;;;;;58.15;27.58;;;;;;;;;;5075158;28;20359;-79
2022/12/13 09:12:41;;;;;;;51.85;28.58;;;;;;;;;;5075355;28;20041;-78
2022/12/13 09:15:28;;;;;;;50.58;25.67;;;;;;;;;;5075425;28;20045;-80
2022/12/13 09:18:15;;;;;;;39.17;21.50;;;;;;;;;;5074988;28;20458;-80
2022/12/13 09:21:05;;;;;;;47.65;25.80;;;;;;;;;;5075421;28;20048;-79
2022/12/13 09:23:51;;;;;;;56.20;27.80;;;;;;;;;;5075466;28;20044;-80
2022/12/13 09:26:37;;;;;;;58.20;31.42;;;;;;;;;;5075225;28;20402;-80
2022/12/13 09:29:22;;;;;;;42.17;23.17;;;;;;;;;;5075714;28;20037;-80
2022/12/13 09:32:11;;;;;;;58.63;31.75;;;;;;;;;;5074755;28;20478;-83
2022/12/13 09:34:56;;;;;;;39.15;21.30;;;;;;;;;;5075147;28;20049;-83
2022/12/13 09:37:41;;;;;;;57.92;30.10;;;;;;;;;;5076425;28;20048;-83
2022/12/13 09:40:28;;;;;;;60.30;30.63;;;;;;;;;;5067301;28;20402;-84
2022/12/13 09:43:23;;;;;;;61.78;32.58;;;;;;;;;;5075020;28;20381;-83
2022/12/13 09:46:21;;;;;;;66.65;35.38;;;;;;;;;;5059882;28;20052;-83
2022/12/13 09:49:16;;;;;;;44.65;22.25;;;;;;;;;;5074372;28;20390;-82
2022/12/13 09:52:04;;;;;;;59.72;30.80;;;;;;;;;;5074745;28;20401;-82
2022/12/13 09:54:56;;;;;;;58.05;30.55;;;;;;;;;;5074058;28;20040;-84
2022/12/13 09:57:42;;;;;;;46.97;24.13;;;;;;;;;;5074616;28;20044;-83
2022/12/13 10:00:33;;;;;;;53.03;29.63;;;;;;;;;;5073855;28;20486;-84
2022/12/13 10:03:21;;;;;;;53.35;28.73;;;;;;;;;;5074739;28;20041;-84
2022/12/13 10:06:15;;;;;;;64.00;33.08;;;;;;;;;;5066205;28;20052;-84
2022/12/13 10:09:01;;;;;;;50.57;29.17;;;;;;;;;;5065110;28;20048;-83
2022/12/13 10:11:49;;;;;;;59.83;28.85;;;;;;;;;;5074386;28;20040;-84
2022/12/13 10:14:39;;;;;;;56.55;28.23;;;;;;;;;;5065632;28;20486;-83
2022/12/13 10:17:30;;;;;;;54.28;29.67;;;;;;;;;;5065815;28;20048;-83
2022/12/13 10:20:19;;;;;;;69.70;36.78;;;;;;;;;;5074506;28;20469;-85
2022/12/13 10:23:05;;;;;;;67.47;32.83;;;;;;;;;;5074054;28;20032;-80
2022/12/13 10:25:56;;;;;;;49.65;27.15;;;;;;;;;;5074698;28;20040;-82
2022/12/13 10:28:42;;;;;;;47.42;23.15;;;;;;;;;;5074413;28;20037;-82
2022/12/13 10:31:28;;;;;;;93.05;40.45;;;;;;;;;;5081047;28;20053;-84
2022/12/13 10:34:26;;;;;;;54.90;27.67;;;;;;;;;;5077492;28;20040;-81
2022/12/13 10:37:23;;;;;;;58.80;29.40;;;;;;;;;;5075512;28;20060;-81
2022/12/13 10:40:22;;;;;;;37.92;20.23;;;;;;;;;;5074095;28;20048;-79
2022/12/13 10:43:14;;;;;;;44.92;22.85;;;;;;;;;;5073181;28;20036;-79
2022/12/13 10:46:02;;;;;;;31.42;17.25;;;;;;;;;;5073887;28;20052;-77
2022/12/13 10:48:49;;;;;;;58.28;30.60;;;;;;;;;;5074463;28;20049;-78
2022/12/13 10:51:38;;;;;;;28.08;15.23;;;;;;;;;;5072912;28;20052;-79
2022/12/13 10:54:34;;;;;;;38.53;19.45;;;;;;;;;;5073273;28;20041;-79
2022/12/13 10:57:19;;;;;;;21.90;11.13;;;;;;;;;;5074712;28;20052;-79
2022/12/13 11:00:30;;;;;;;35.13;18.67;;;;;;;;;;5083318;28;20048;-79
2022/12/13 11:03:32;;;;;;;41.50;22.13;;;;;;;;;;5072487;28;20052;-78
2022/12/13 11:06:17;;;;;;;33.78;17.77;;;;;;;;;;5072766;28;20074;-79
2022/12/13 11:09:30;;;;;;;33.47;17.77;;;;;;;;;;5074074;28;20052;-79
2022/12/13 11:12:20;;;;;;;30.33;15.68;;;;;;;;;;5072954;28;20048;-78
2022/12/13 11:15:06;;;;;;;21.67;11.32;;;;;;;;;;5073422;28;20049;-78
2022/12/13 11:18:00;;;;;;;37.67;18.55;;;;;;;;;;5072847;28;20486;-79
2022/12/13 11:21:01;;;;;;;25.42;13.55;;;;;;;;;;5079165;28;20044;-78
2022/12/13 11:23:47;;;;;;;19.80;12.02;;;;;;;;;;5073240;28;20052;-78
2022/12/13 11:26:36;;;;;;;30.83;15.80;;;;;;;;;;5072845;28;20041;-82
2022/12/13 11:29:44;;;;;;;44.90;21.73;;;;;;;;;;5080793;28;20048;-79
2022/12/13 11:32:29;;;;;;;44.25;19.67;;;;;;;;;;5072980;28;20393;-79
2022/12/13 11:35:19;;;;;;;24.83;14.57;;;;;;;;;;5073292;28;20478;-83
2022/12/13 11:38:26;;;;;;;26.52;13.15;;;;;;;;;;5073179;28;20405;-81
2022/12/13 11:41:21;;;;;;;29.38;15.25;;;;;;;;;;5072583;28;20493;-81
2022/12/13 11:44:24;;;;;;;29.13;17.52;;;;;;;;;;5079760;28;20045;-80
2022/12/13 11:47:20;;;;;;;43.08;22.48;;;;;;;;;;5072431;28;20052;-80
2022/12/13 11:50:19;;;;;;;32.40;18.00;;;;;;;;;;5065015;28;20037;-80
2022/12/13 11:53:25;;;;;;;27.77;15.38;;;;;;;;;;5079335;28;20386;-81
2022/12/13 11:56:22;;;;;;;35.40;19.25;;;;;;;;;;5057969;28;20413;-78
2022/12/13 11:59:46;;;;;;;28.48;14.80;;;;;;;;;;5073108;28;20494;-83
2022/12/13 12:02:40;;;;;;;32.30;18.85;;;;;;;;;;5063688;28;20048;-80
2022/12/13 12:05:38;;;;;;;27.08;12.82;;;;;;;;;;5073029;28;20048;-84
2022/12/13 12:08:45;;;;;;;24.65;13.13;;;;;;;;;;5064418;28;20044;-82
2022/12/13 12:11:38;;;;;;;27.17;13.80;;;;;;;;;;5072792;28;20420;-82
2022/12/13 12:14:30;;;;;;;25.55;13.55;;;;;;;;;;5072997;28;20045;-82
2022/12/13 12:17:21;;;;;;;18.50;10.07;;;;;;;;;;5079658;28;20044;-83
2022/12/13 12:20:12;;;;;;;19.55;10.98;;;;;;;;;;5079821;28;20032;-82
2022/12/13 12:23:16;;;;;;;24.42;12.45;;;;;;;;;;5079644;28;20037;-83
2022/12/13 12:26:07;;;;;;;14.75;7.63;;;;;;;;;;5079678;28;20049;-82
2022/12/13 12:29:23;;;;;;;17.63;9.13;;;;;;;;;;5070805;28;20032;-83
2022/12/13 12:32:30;;;;;;;14.75;8.80;;;;;;;;;;5081462;28;20060;-81
2022/12/13 12:35:28;;;;;;;24.25;11.63;;;;;;;;;;5084192;28;20045;-82
2022/12/13 12:38:32;;;;;;;23.85;12.32;;;;;;;;;;5076944;28;20049;-82
2022/12/13 12:41:42;;;;;;;18.25;10.75;;;;;;;;;;5069298;28;20044;-84
2022/12/13 12:44:44;;;;;;;17.90;9.95;;;;;;;;;;5076076;28;20049;-84
2022/12/13 12:47:48;;;;;;;25.38;12.50;;;;;;;;;;5068928;28;20401;-82
2022/12/13 12:50:48;;;;;;;24.42;13.70;;;;;;;;;;5075580;28;20048;-84
2022/12/13 12:53:40;;;;;;;19.65;10.55;;;;;;;;;;5061003;28;20040;-82
2022/12/13 12:56:53;;;;;;;24.25;12.15;;;;;;;;;;5075773;28;20045;-84
2022/12/13 12:59:45;;;;;;;21.00;11.38;;;;;;;;;;5075398;28;20033;-82
2022/12/13 13:02:41;;;;;;;23.13;12.75;;;;;;;;;;5060673;28;20049;-82
2022/12/13 13:05:34;;;;;;;24.35;12.50;;;;;;;;;;5067022;28;20032;-82
2022/12/13 13:08:23;;;;;;;34.67;18.20;;;;;;;;;;5067552;28;20048;-83
2022/12/13 13:11:10;;;;;;;40.15;22.50;;;;;;;;;;5075900;28;20044;-82
2022/12/13 13:14:21;;;;;;;47.05;23.63;;;;;;;;;;5075455;28;20044;-82
2022/12/13 13:17:16;;;;;;;32.45;16.63;;;;;;;;;;5080540;28;20049;-81
2022/12/13 13:20:21;;;;;;;25.58;13.95;;;;;;;;;;5073983;28;20037;-83
2022/12/13 13:23:12;;;;;;;;;;;;;;;;;;5067978;28;20048;-83
2022/12/13 13:25:57;;;;;;;17.17;9.68;;;;;;;;;;5074529;28;19916;-83
2022/12/13 13:28:43;;;;;;;34.92;17.25;;;;;;;;;;5074885;28;20394;-82
2022/12/13 13:32:05;;;;;;;28.95;15.65;;;;;;;;;;5066691;28;20478;-83
2022/12/13 13:34:54;;;;;;;20.27;11.38;;;;;;;;;;5074566;28;20056;-82
2022/12/13 13:37:47;;;;;;;33.58;17.92;;;;;;;;;;5060166;28;20036;-83
2022/12/13 13:40:37;;;;;;;22.30;12.60;;;;;;;;;;5060098;28;20053;-83
2022/12/13 13:43:29;;;;;;;30.65;15.20;;;;;;;;;;5075933;28;20049;-84
2022/12/13 13:46:14;;;;;;;26.70;14.52;;;;;;;;;;5075178;28;20482;-84
2022/12/13 13:49:09;;;;;;;18.90;11.45;;;;;;;;;;5059591;28;20045;-83
2022/12/13 13:52:18;;;;;;;29.98;17.42;;;;;;;;;;5067660;28;20048;-82
2022/12/13 13:55:15;;;;;;;29.17;16.27;;;;;;;;;;5059203;28;20448;-84
2022/12/13 13:58:52;;;;;;;34.40;17.67;;;;;;;;;;5060928;28;20405;-84
2022/12/13 14:02:20;;;;;;;27.40;14.73;;;;;;;;;;5065831;28;20044;-84
2022/12/13 14:05:38;;;;;;;24.40;13.48;;;;;;;;;;4961079;28;20058;-83
2022/12/13 14:08:42;;;;;;;28.75;13.95;;;;;;;;;;5074561;28;20045;-84
2022/12/13 14:11:55;;;;;;;21.33;11.32;;;;;;;;;;5074440;28;20476;-83
2022/12/13 14:15:04;;;;;;;34.47;17.95;;;;;;;;;;5066420;28;20052;-83
2022/12/13 14:18:28;;;;;;;36.92;18.83;;;;;;;;;;5065102;28;20052;-82
2022/12/13 14:21:26;;;;;;;30.65;16.88;;;;;;;;;;5037035;28;20390;-83
2022/12/13 14:24:27;;;;;;;27.15;13.93;;;;;;;;;;5066061;28;20056;-84
2022/12/13 14:27:24;;;;;;;37.00;17.80;;;;;;;;;;5074338;28;20049;-83
2022/12/13 14:30:28;;;;;;;25.67;13.88;;;;;;;;;;5061837;28;20040;-84
2022/12/13 14:33:22;;;;;;;24.15;14.98;;;;;;;;;;5075313;28;20478;-82
2022/12/13 14:36:14;;;;;;;25.77;13.70;;;;;;;;;;5073968;28;20033;-82
2022/12/13 14:39:06;;;;;;;19.63;11.48;;;;;;;;;;5073320;28;20417;-83
2022/12/13 14:41:54;;;;;;;30.55;16.08;;;;;;;;;;5073919;28;20044;-82
2022/12/13 14:44:39;;;;;;;21.45;11.98;;;;;;;;;;5058477;28;20040;-82
2022/12/13 14:47:26;;;;;;;26.48;13.18;;;;;;;;;;5073548;28;20044;-84
2022/12/13 14:50:16;;;;;;;17.73;10.52;;;;;;;;;;5073658;28;20048;-79
2022/12/13 14:53:03;;;;;;;26.00;12.80;;;;;;;;;;5050317;28;20406;-83
2022/12/13 14:56:21;;;;;;;29.20;12.90;;;;;;;;;;5073848;28;20040;-81
2022/12/13 14:59:11;;;;;;;38.70;17.83;;;;;;;;;;5036059;28;20213;-84
2022/12/13 15:02:02;;;;;;;31.23;14.55;;;;;;;;;;5078078;28;20049;-83
2022/12/13 15:04:51;;;;;;;50.47;23.60;;;;;;;;;;5073672;28;20501;-80
2022/12/13 15:07:40;;;;;;;36.67;17.65;;;;;;;;;;5072801;28;20045;-82
2022/12/13 15:10:29;;;;;;;43.08;20.73;;;;;;;;;;5061886;28;20490;-84
2022/12/13 15:13:41;;;;;;;33.47;17.90;;;;;;;;;;5076706;28;20041;-83
2022/12/13 15:16:28;;;;;;;52.97;24.35;;;;;;;;;;5061042;28;20497;-83
2022/12/13 15:19:24;;;;;;;53.40;25.52;;;;;;;;;;5073977;28;20032;-81
2022/12/13 15:22:15;;;;;;;43.83;22.63;;;;;;;;;;5064536;28;20049;-81
2022/12/13 15:25:06;;;;;;;74.05;33.28;;;;;;;;;;5073296;28;20049;-79
2022/12/13 15:28:13;;;;;;;109.55;46.03;;;;;;;;;;5073120;28;20037;-86
2022/12/13 15:31:02;;;;;;;391.98;152.77;;;;;;;;;;5065740;28;20398;-86
2022/12/13 15:33:49;;;;;;;450.95;214.88;;;;;;;;;;5066264;28;20040;-82
2022/12/13 15:36:37;;;;;;;615.20;341.30;;;;;;;;;;5086762;28;20044;-82
2022/12/13 15:39:24;;;;;;;415.88;233.60;;;;;;;;;;5086168;28;20049;-81
2022/12/13 15:42:36;;;;;;;97.20;54.10;;;;;;;;;;5072662;28;20033;-82
2022/12/13 15:45:25;;;;;;;35.33;17.92;;;;;;;;;;5064966;28;20424;-82
2022/12/13 15:48:31;;;;;;;48.72;26.15;;;;;;;;;;5058016;28;20032;-82
2022/12/13 15:51:17;;;;;;;36.95;17.90;;;;;;;;;;5072683;28;20048;-79
2022/12/13 15:54:17;;;;;;;52.30;26.70;;;;;;;;;;5073073;28;20048;-79
2022/12/13 15:57:20;;;;;;;72.10;30.70;;;;;;;;;;5072400;28;20119;-83
2022/12/13 16:00:19;;;;;;;43.78;26.15;;;;;;;;;;5073018;28;20040;-82
2022/12/13 16:03:17;;;;;;;42.15;21.17;;;;;;;;;;5072112;28;20037;-80
2022/12/13 16:06:05;;;;;;;48.53;25.67;;;;;;;;;;5073132;28;20045;-81
2022/12/13 16:08:53;;;;;;;37.88;21.98;;;;;;;;;;5077037;28;20048;-81
2022/12/13 16:12:06;;;;;;;52.60;29.70;;;;;;;;;;5076169;28;20045;-80
2022/12/13 16:14:51;;;;;;;74.25;39.00;;;;;;;;;;5083874;28;20048;-80
2022/12/13 16:17:40;;;;;;;68.30;35.83;;;;;;;;;;5076033;28;20049;-83
2022/12/13 16:20:26;;;;;;;114.47;51.10;;;;;;;;;;5076823;28;20040;-79
2022/12/13 16:23:12;;;;;;;56.08;29.30;;;;;;;;;;5084038;28;20052;-81
2022/12/13 16:25:57;;;;;;;31.42;17.38;;;;;;;;;;5082752;28;20049;-80
2022/12/13 16:28:43;;;;;;;38.13;20.33;;;;;;;;;;5076718;28;20044;-80
2022/12/13 16:31:34;;;;;;;28.60;16.70;;;;;;;;;;5075859;28;20045;-80
2022/12/13 16:34:19;;;;;;;36.17;19.52;;;;;;;;;;5076617;28;20048;-79
2022/12/13 16:37:05;;;;;;;26.75;15.48;;;;;;;;;;5082913;28;20032;-80
2022/12/13 16:39:50;;;;;;;28.20;16.92;;;;;;;;;;5060716;28;20036;-81